createdAt,value
2018-06-13T00:01:22.818Z,1.52
2018-06-13T00:03:51.337Z,1.32
2018-06-13T00:06:19.761Z,1.42
2018-06-13T00:08:48.153Z,1.30
2018-06-13T00:11:16.573Z,1.62
2018-06-13T00:13:44.969Z,1.50
2018-06-13T00:16:13.401Z,2.08
2018-06-13T00:18:41.862Z,1.92
2018-06-13T00:21:10.417Z,1.67
2018-06-13T00:23:38.936Z,2.08
2018-06-13T00:26:07.372Z,2.30
2018-06-13T00:28:35.761Z,2.47
2018-06-13T00:31:04.341Z,2.12
2018-06-13T00:33:32.716Z,2.12
2018-06-13T00:36:01.149Z,2.50
2018-06-13T00:38:29.565Z,2.35
2018-06-13T00:40:58.037Z,2.62
2018-06-13T00:43:26.457Z,2.55
2018-06-13T00:45:54.865Z,2.35
2018-06-13T00:48:23.448Z,2.25
2018-06-13T00:50:51.865Z,2.37
2018-06-13T00:53:20.245Z,2.83
2018-06-13T00:55:59.840Z,2.50
2018-06-13T00:58:28.260Z,2.25
2018-06-13T01:00:56.697Z,2.27
2018-06-13T01:03:25.157Z,2.30
2018-06-13T01:05:53.573Z,2.40
2018-06-13T01:08:21.963Z,2.10
2018-06-13T01:10:51.241Z,2.20
2018-06-13T01:13:19.625Z,2.52
2018-06-13T01:15:48.045Z,1.85
2018-06-13T01:18:16.460Z,2.55
2018-06-13T01:20:44.932Z,2.02
2018-06-13T01:23:13.314Z,2.22
2018-06-13T01:25:41.736Z,2.55
2018-06-13T01:28:10.117Z,1.90
2018-06-13T01:30:38.548Z,2.40
2018-06-13T01:33:06.934Z,2.02
2018-06-13T01:35:35.383Z,2.15
2018-06-13T01:38:03.825Z,2.35
2018-06-13T01:40:32.220Z,1.90
2018-06-13T01:43:00.804Z,1.80
2018-06-13T01:45:29.368Z,1.95
2018-06-13T01:47:57.816Z,2.58
2018-06-13T01:50:26.193Z,1.95
2018-06-13T01:52:54.613Z,1.52
2018-06-13T01:55:23.128Z,2.35
2018-06-13T01:57:51.554Z,2.10
2018-06-13T02:00:19.934Z,1.80
2018-06-13T02:02:48.345Z,2.00
2018-06-13T02:05:16.849Z,2.15
2018-06-13T02:07:45.677Z,2.40
2018-06-13T02:10:14.273Z,1.87
2018-06-13T02:12:42.684Z,1.80
2018-06-13T02:15:11.131Z,1.90
2018-06-13T02:17:39.553Z,1.80
2018-06-13T02:20:07.972Z,2.30
2018-06-13T02:22:36.378Z,2.52
2018-06-13T02:25:04.817Z,2.20
2018-06-13T02:27:33.220Z,2.50
2018-06-13T02:30:01.706Z,2.37
2018-06-13T02:32:30.132Z,2.72
2018-06-13T02:34:58.237Z,2.62
2018-06-13T02:37:26.635Z,3.15
2018-06-13T02:39:55.045Z,3.30
2018-06-13T02:42:23.489Z,3.15
2018-06-13T02:44:51.877Z,3.25
2018-06-13T02:47:20.268Z,3.42
2018-06-13T02:49:48.670Z,3.42
2018-06-13T02:52:17.088Z,3.52
2018-06-13T02:54:45.528Z,3.65
2018-06-13T02:57:13.921Z,3.42
2018-06-13T02:59:42.333Z,3.83
2018-06-13T03:02:10.753Z,3.83
2018-06-13T03:04:39.143Z,4.08
2018-06-13T03:07:07.537Z,3.62
2018-06-13T03:09:35.909Z,3.75
2018-06-13T03:12:04.362Z,4.15
2018-06-13T03:14:32.459Z,4.03
2018-06-13T03:17:00.860Z,4.62
2018-06-13T03:19:29.249Z,4.53
2018-06-13T03:21:57.671Z,4.83
2018-06-13T03:24:26.149Z,4.53
2018-06-13T03:26:54.563Z,4.37
2018-06-13T03:29:22.940Z,4.60
2018-06-13T03:31:51.334Z,4.22
2018-06-13T03:34:19.745Z,4.50
2018-06-13T03:36:48.152Z,4.70
2018-06-13T03:39:16.559Z,4.65
2018-06-13T03:41:45.081Z,4.72
2018-06-13T03:44:13.489Z,5.10
2018-06-13T03:46:41.573Z,4.72
2018-06-13T03:49:09.988Z,4.97
2018-06-13T03:51:38.368Z,4.92
2018-06-13T03:54:06.511Z,5.37
2018-06-13T03:56:34.888Z,5.22
2018-06-13T03:59:03.332Z,4.92
2018-06-13T04:01:31.787Z,5.05
2018-06-13T04:04:00.218Z,5.25
2018-06-13T04:06:28.597Z,4.15
2018-06-13T04:08:57.025Z,4.67
2018-06-13T04:11:25.465Z,4.95
2018-06-13T04:13:53.877Z,5.53
2018-06-13T04:16:22.257Z,5.03
2018-06-13T04:18:50.646Z,5.67
2018-06-13T04:21:19.028Z,5.85
2018-06-13T04:23:47.486Z,5.95
2018-06-13T04:26:15.894Z,6.30
2018-06-13T04:28:44.325Z,5.60
2018-06-13T04:31:12.727Z,6.42
2018-06-13T04:33:41.207Z,6.20
2018-06-13T04:36:09.590Z,6.22
2018-06-13T04:38:38.016Z,6.30
2018-06-13T04:41:06.141Z,5.87
2018-06-13T04:43:34.569Z,5.33
2018-06-13T04:46:02.981Z,5.72
2018-06-13T04:48:31.401Z,6.50
2018-06-13T04:50:59.797Z,6.67
2018-06-13T04:53:28.225Z,7.10
2018-06-13T04:55:56.638Z,7.50
2018-06-13T04:58:25.103Z,8.08
2018-06-13T05:00:53.538Z,8.70
2018-06-13T05:03:22.016Z,8.45
2018-06-13T05:05:50.446Z,10.45
2018-06-13T05:08:18.872Z,10.13
2018-06-13T05:10:46.984Z,10.45
2018-06-13T05:13:15.120Z,10.72
2018-06-13T05:15:43.541Z,11.08
2018-06-13T05:18:11.980Z,11.03
2018-06-13T05:20:40.401Z,8.93
2018-06-13T05:23:08.563Z,8.95
2018-06-13T05:25:36.993Z,9.28
2018-06-13T05:28:05.525Z,8.78
2018-06-13T05:30:33.625Z,8.43
2018-06-13T05:33:02.013Z,9.30
2018-06-13T05:35:30.472Z,8.60
2018-06-13T05:37:58.862Z,5.45
2018-06-13T05:40:27.288Z,7.22
2018-06-13T05:42:55.379Z,8.18
2018-06-13T05:45:23.889Z,6.65
2018-06-13T05:47:52.274Z,6.03
2018-06-13T05:50:20.730Z,4.72
2018-06-13T05:52:49.130Z,4.22
2018-06-13T05:55:17.549Z,3.85
2018-06-13T05:57:46.014Z,3.12
2018-06-13T06:00:14.464Z,2.37
2018-06-13T06:02:42.848Z,2.47
2018-06-13T06:05:11.266Z,2.40
2018-06-13T06:07:39.662Z,2.70
2018-06-13T06:10:08.128Z,2.47
2018-06-13T06:12:36.516Z,2.83
2018-06-13T06:15:04.932Z,2.67
2018-06-13T06:17:33.310Z,3.22
2018-06-13T06:20:01.710Z,3.22
2018-06-13T06:22:30.124Z,3.05
2018-06-13T06:24:58.548Z,3.15
2018-06-13T06:27:26.933Z,3.75
2018-06-13T06:29:55.339Z,4.00
2018-06-13T06:32:23.720Z,4.72
2018-06-13T06:34:52.137Z,3.85
2018-06-13T06:37:20.525Z,4.35
2018-06-13T06:39:48.960Z,4.42
2018-06-13T06:42:17.386Z,4.78
2018-06-13T06:44:45.789Z,4.65
2018-06-13T06:47:14.207Z,4.67
2018-06-13T06:49:42.653Z,5.08
2018-06-13T06:52:11.073Z,4.40
2018-06-13T06:54:39.485Z,3.77
2018-06-13T06:57:07.865Z,4.20
2018-06-13T06:59:36.302Z,4.67
2018-06-13T07:02:04.720Z,4.10
2018-06-13T07:04:33.124Z,4.10
2018-06-13T07:07:01.567Z,3.65
2018-06-13T07:09:29.662Z,4.42
2018-06-13T07:11:58.069Z,4.75
2018-06-13T07:14:26.457Z,5.03
2018-06-13T07:16:54.896Z,4.87
2018-06-13T07:19:23.281Z,5.20
2018-06-13T07:21:51.765Z,4.37
2018-06-13T07:24:20.144Z,4.40
2018-06-13T07:26:48.579Z,3.50
2018-06-13T07:29:16.656Z,3.60
2018-06-13T07:31:45.060Z,2.87
2018-06-13T07:34:13.525Z,3.80
2018-06-13T07:36:41.954Z,3.75
2018-06-13T07:39:10.369Z,3.72
2018-06-13T07:41:38.786Z,4.45
2018-06-13T07:44:07.165Z,3.55
2018-06-13T07:46:35.584Z,3.15
2018-06-13T07:49:03.989Z,4.05
2018-06-13T07:51:32.471Z,4.45
2018-06-13T07:54:00.861Z,3.87
2018-06-13T07:56:29.316Z,4.08
2018-06-13T07:58:57.746Z,3.55
2018-06-13T08:01:26.143Z,4.12
2018-06-13T08:03:54.576Z,3.15
2018-06-13T08:06:22.969Z,3.77
2018-06-13T08:08:51.442Z,3.80
2018-06-13T08:11:19.851Z,4.25
2018-06-13T08:13:48.240Z,3.95
2018-06-13T08:16:16.680Z,4.78
2018-06-13T08:18:45.055Z,5.22
2018-06-13T08:21:13.570Z,5.60
2018-06-13T08:23:41.961Z,5.00
2018-06-13T08:26:10.414Z,6.35
2018-06-13T08:28:38.826Z,6.25
2018-06-13T08:31:07.304Z,6.85
2018-06-13T08:33:35.713Z,6.78
2018-06-13T08:36:04.168Z,7.35
2018-06-13T08:38:32.650Z,7.17
2018-06-13T08:41:01.068Z,7.35
2018-06-13T08:43:29.448Z,7.83
2018-06-13T08:45:57.836Z,7.87
2018-06-13T08:48:26.256Z,8.35
2018-06-13T08:50:54.744Z,8.18
2018-06-13T08:53:23.144Z,9.30
2018-06-13T08:55:51.626Z,9.58
2018-06-13T08:58:20.024Z,10.18
2018-06-13T09:00:48.445Z,10.25
2018-06-13T09:03:16.911Z,10.25
2018-06-13T09:05:45.460Z,9.10
2018-06-13T09:08:13.912Z,10.68
2018-06-13T09:10:42.295Z,11.08
2018-06-13T09:13:10.706Z,12.03
2018-06-13T09:15:39.110Z,10.85
2018-06-13T09:18:07.534Z,12.95
2018-06-13T09:20:35.916Z,12.82
2018-06-13T09:23:04.354Z,12.82
2018-06-13T09:25:32.749Z,14.55
2018-06-13T09:28:01.177Z,14.10
2018-06-13T09:30:29.579Z,15.13
2018-06-13T09:32:58.044Z,14.47
2018-06-13T09:35:26.448Z,14.68
2018-06-13T09:37:54.862Z,14.87
2018-06-13T09:40:23.245Z,14.45
2018-06-13T09:42:51.717Z,13.65
2018-06-13T09:45:20.104Z,15.13
2018-06-13T09:47:48.563Z,14.10
2018-06-13T09:50:16.927Z,15.00
2018-06-13T09:52:45.357Z,14.47
2018-06-13T09:55:13.807Z,14.30
2018-06-13T09:57:42.240Z,15.03
2018-06-13T10:00:15.979Z,14.85
2018-06-13T10:02:44.425Z,16.00
2018-06-13T10:05:12.890Z,15.43
2018-06-13T10:07:41.316Z,14.87
2018-06-13T10:10:09.700Z,17.48
2018-06-13T10:12:38.223Z,14.65
2018-06-13T10:15:06.627Z,15.20
2018-06-13T10:17:35.065Z,16.37
2018-06-13T10:20:03.497Z,16.05
2018-06-13T10:22:31.936Z,16.27
2018-06-13T10:25:00.321Z,18.10
2018-06-13T10:27:34.088Z,18.50
2018-06-13T10:30:02.511Z,18.17
2018-06-13T10:32:30.916Z,17.52
2018-06-13T10:34:59.344Z,16.85
2018-06-13T10:37:27.754Z,16.87
2018-06-13T10:39:56.186Z,17.05
2018-06-13T10:42:24.570Z,17.70
2018-06-13T10:44:53.002Z,17.70
2018-06-13T10:47:21.398Z,16.82
2018-06-13T10:49:49.929Z,17.50
2018-06-13T10:52:18.336Z,17.12
2018-06-13T10:54:46.742Z,16.42
2018-06-13T10:57:15.129Z,17.62
2018-06-13T10:59:43.614Z,16.10
2018-06-13T11:02:12.019Z,18.07
2018-06-13T11:04:40.522Z,14.80
2018-06-13T11:07:08.913Z,17.77
2018-06-13T11:09:37.325Z,14.75
2018-06-13T11:12:05.451Z,16.75
2018-06-13T11:14:33.944Z,15.93
2018-06-13T11:17:02.337Z,16.97
2018-06-13T11:19:30.771Z,17.00
2018-06-13T11:21:59.206Z,16.10
2018-06-13T11:24:27.639Z,17.20
2018-06-13T11:26:56.049Z,17.17
2018-06-13T11:29:24.459Z,16.35
2018-06-13T11:31:53.700Z,15.85
2018-06-13T11:34:22.173Z,16.17
2018-06-13T11:36:51.100Z,16.37
2018-06-13T11:39:19.512Z,16.00
2018-06-13T11:41:47.896Z,16.55
2018-06-13T11:44:16.313Z,18.62
2018-06-13T11:46:44.692Z,17.57
2018-06-13T11:49:12.839Z,17.70
2018-06-13T11:51:41.249Z,17.52
2018-06-13T11:54:09.668Z,17.45
2018-06-13T11:56:38.095Z,16.82
2018-06-13T11:59:06.576Z,18.20
2018-06-13T12:01:34.993Z,17.45
2018-06-13T12:04:03.441Z,16.93
2018-06-13T12:06:31.834Z,17.20
2018-06-13T12:09:00.264Z,17.45
2018-06-13T12:11:28.686Z,18.35
2018-06-13T12:13:57.096Z,17.52
2018-06-13T12:16:25.485Z,17.85
2018-06-13T12:18:53.989Z,17.67
2018-06-13T12:21:22.422Z,16.20
2018-06-13T12:23:50.826Z,16.23
2018-06-13T12:26:19.297Z,17.35
2018-06-13T12:28:47.742Z,15.68
2018-06-13T12:31:16.172Z,17.15
2018-06-13T12:33:44.606Z,15.38
2018-06-13T12:36:13.160Z,16.70
2018-06-13T12:38:42.049Z,16.95
2018-06-13T12:41:10.504Z,17.12
2018-06-13T12:43:38.912Z,16.45
2018-06-13T12:46:07.372Z,16.37
2018-06-13T12:48:35.830Z,17.95
2018-06-13T12:51:04.286Z,18.57
2018-06-13T12:53:32.704Z,16.10
2018-06-13T12:56:01.166Z,17.98
2018-06-13T12:58:29.621Z,16.95
2018-06-13T13:00:58.053Z,16.00
2018-06-13T13:03:26.486Z,16.48
2018-06-13T13:05:54.945Z,16.50
2018-06-13T13:08:23.352Z,17.95
2018-06-13T13:10:51.864Z,16.65
2018-06-13T13:13:20.282Z,17.65
2018-06-13T13:15:48.724Z,16.73
2018-06-13T13:18:17.145Z,17.23
2018-06-13T13:20:45.574Z,17.27
2018-06-13T13:23:14.049Z,16.52
2018-06-13T13:25:42.457Z,17.77
2018-06-13T13:28:10.837Z,17.42
2018-06-13T13:30:39.268Z,18.10
2018-06-13T13:33:07.855Z,17.12
2018-06-13T13:35:36.293Z,18.12
2018-06-13T13:38:04.752Z,18.35
2018-06-13T13:40:33.188Z,17.60
2018-06-13T13:43:01.616Z,17.65
2018-06-13T13:45:29.798Z,17.77
2018-06-13T13:47:58.213Z,17.90
2018-06-13T13:50:26.628Z,18.23
2018-06-13T13:52:55.045Z,17.00
2018-06-13T13:55:23.501Z,17.82
2018-06-13T13:57:51.925Z,16.87
2018-06-13T14:00:20.356Z,17.80
2018-06-13T14:02:48.789Z,17.62
2018-06-13T14:05:17.195Z,17.17
2018-06-13T14:07:45.619Z,17.27
2018-06-13T14:10:14.022Z,16.75
2018-06-13T14:12:42.441Z,17.40
2018-06-13T14:15:10.897Z,17.67
2018-06-13T14:17:39.325Z,19.65
2018-06-13T14:20:07.997Z,17.55
2018-06-13T14:22:36.704Z,17.23
2018-06-13T14:25:05.137Z,17.37
2018-06-13T14:27:33.814Z,18.42
2018-06-13T14:30:02.221Z,18.37
2018-06-13T14:32:30.750Z,18.82
2018-06-13T14:34:59.124Z,18.10
2018-06-13T14:37:27.546Z,17.82
2018-06-13T14:39:56.317Z,17.85
2018-06-13T14:42:24.793Z,18.70
2018-06-13T14:44:53.233Z,17.95
2018-06-13T14:47:21.656Z,17.50
2018-06-13T14:49:49.751Z,16.82
2018-06-13T14:52:18.181Z,17.65
2018-06-13T14:54:46.625Z,19.32
2018-06-13T14:57:15.208Z,17.23
2018-06-13T14:59:43.641Z,16.10
2018-06-13T15:02:12.094Z,17.10
2018-06-13T15:04:40.203Z,16.52
2018-06-13T15:07:08.643Z,15.60
2018-06-13T15:09:37.052Z,15.00
2018-06-13T15:12:05.506Z,16.12
2018-06-13T15:14:33.917Z,14.40
2018-06-13T15:17:02.386Z,14.15
2018-06-13T15:19:30.797Z,13.18
2018-06-13T15:21:59.249Z,14.58
2018-06-13T15:24:27.650Z,11.78
2018-06-13T15:26:56.113Z,11.95
2018-06-13T15:29:24.516Z,13.03
2018-06-13T15:31:52.982Z,11.48
2018-06-13T15:34:21.376Z,11.45
2018-06-13T15:36:49.794Z,11.12
2018-06-13T15:39:18.257Z,11.03
2018-06-13T15:41:46.755Z,10.65
2018-06-13T15:44:15.234Z,10.63
2018-06-13T15:46:43.649Z,11.22
2018-06-13T15:49:12.065Z,11.63
2018-06-13T15:51:40.497Z,10.60
2018-06-13T15:54:08.956Z,10.65
2018-06-13T15:56:37.369Z,10.20
2018-06-13T15:59:05.860Z,9.98
2018-06-13T16:01:34.270Z,10.70
2018-06-13T16:04:02.696Z,10.23
2018-06-13T16:06:31.069Z,10.25
2018-06-13T16:08:59.508Z,10.78
2018-06-13T16:11:27.924Z,11.08
2018-06-13T16:13:56.424Z,9.80
2018-06-13T16:16:24.880Z,10.75
2018-06-13T16:18:53.305Z,11.08
2018-06-13T16:21:21.721Z,10.45
2018-06-13T16:23:50.137Z,10.63
2018-06-13T16:26:18.516Z,10.35
2018-06-13T16:28:46.986Z,10.15
2018-06-13T16:31:15.085Z,10.15
2018-06-13T16:33:43.757Z,10.03
2018-06-13T16:36:12.164Z,10.25
2018-06-13T16:38:40.589Z,9.83
2018-06-13T16:41:09.001Z,10.40
2018-06-13T16:43:37.425Z,9.58
2018-06-13T16:46:06.028Z,10.75
2018-06-13T16:48:34.703Z,9.63
2018-06-13T16:51:14.193Z,9.55
2018-06-13T16:53:51.459Z,9.60
2018-06-13T16:56:20.013Z,9.08
2018-06-13T16:58:49.144Z,9.58
2018-06-13T17:01:17.607Z,11.60
2018-06-13T17:03:46.021Z,8.68
2018-06-13T17:06:14.420Z,9.58
2018-06-13T17:08:42.848Z,9.13
2018-06-13T17:11:11.245Z,9.45
2018-06-13T17:13:39.619Z,9.25
2018-06-13T17:16:08.049Z,9.75
2018-06-13T17:18:36.483Z,9.75
2018-06-13T17:21:05.216Z,9.60
2018-06-13T17:23:33.861Z,10.00
2018-06-13T17:26:02.312Z,10.72
2018-06-13T17:28:30.704Z,10.85
2018-06-13T17:30:59.113Z,10.45
2018-06-13T17:33:27.521Z,11.25
2018-06-13T17:35:55.991Z,11.35
2018-06-13T17:38:24.505Z,10.82
2018-06-13T17:40:52.942Z,11.33
2018-06-13T17:43:21.465Z,11.12
2018-06-13T17:45:49.954Z,11.33
2018-06-13T17:48:18.384Z,10.30
2018-06-13T17:50:46.883Z,10.00
2018-06-13T17:53:15.317Z,10.20
2018-06-13T17:55:43.889Z,10.68
2018-06-13T17:58:12.274Z,10.90
2018-06-13T18:00:40.957Z,11.40
2018-06-13T18:03:09.355Z,11.12
2018-06-13T18:05:37.861Z,11.88
2018-06-13T18:08:06.293Z,10.58
2018-06-13T18:10:34.720Z,11.33
2018-06-13T18:13:03.245Z,11.20
2018-06-13T18:15:31.686Z,10.55
2018-06-13T18:18:00.117Z,11.25
2018-06-13T18:20:28.538Z,10.08
2018-06-13T18:22:57.015Z,10.68
2018-06-13T18:25:25.434Z,10.60
2018-06-13T18:27:53.835Z,11.12
2018-06-13T18:30:22.220Z,12.15
2018-06-13T18:32:50.712Z,12.20
2018-06-13T18:35:19.142Z,10.98
2018-06-13T18:37:47.791Z,11.28
2018-06-13T18:40:16.225Z,12.18
2018-06-13T18:42:44.640Z,11.03
2018-06-13T18:45:13.049Z,10.50
2018-06-13T18:47:41.525Z,10.80
2018-06-13T18:50:09.934Z,11.22
2018-06-13T18:52:38.375Z,10.65
2018-06-13T18:55:06.817Z,11.28
2018-06-13T18:57:35.257Z,10.90
2018-06-13T19:00:03.997Z,10.25
2018-06-13T19:02:32.469Z,9.83
2018-06-13T19:05:00.556Z,9.33
2018-06-13T19:07:28.696Z,8.80
2018-06-13T19:09:57.130Z,9.38
2018-06-13T19:12:26.205Z,8.83
2018-06-13T19:14:54.612Z,10.00
2018-06-13T19:17:23.177Z,8.23
2018-06-13T19:19:51.717Z,9.65
2018-06-13T19:22:20.157Z,8.83
2018-06-13T19:24:48.537Z,9.00
2018-06-13T19:27:17.228Z,8.10
2018-06-13T19:29:45.645Z,9.38
2018-06-13T19:32:14.119Z,8.68
2018-06-13T19:34:42.494Z,9.88
2018-06-13T19:37:10.619Z,9.70
2018-06-13T19:39:39.037Z,9.53
2018-06-13T19:42:07.464Z,9.85
2018-06-13T19:44:35.884Z,8.80
2018-06-13T19:47:09.565Z,9.90
2018-06-13T19:49:38.133Z,10.00
2018-06-13T19:52:06.563Z,9.60
2018-06-13T19:54:40.289Z,9.43
2018-06-13T19:57:08.696Z,9.25
2018-06-13T19:59:37.158Z,9.48
2018-06-13T20:02:05.588Z,9.63
2018-06-13T20:04:39.473Z,7.67
2018-06-13T20:07:07.890Z,8.30
2018-06-13T20:09:36.297Z,7.90
2018-06-13T20:12:10.005Z,8.33
2018-06-13T20:14:43.700Z,8.40
2018-06-13T20:17:17.546Z,8.18
2018-06-13T20:19:46.753Z,8.10
2018-06-13T20:22:15.174Z,8.05
2018-06-13T20:24:47.778Z,7.50
2018-06-13T20:27:21.589Z,8.10
2018-06-13T20:29:55.404Z,7.83
2018-06-13T20:32:23.836Z,7.50
2018-06-13T20:34:52.273Z,7.80
2018-06-13T20:37:20.658Z,7.65
2018-06-13T20:39:49.146Z,7.47
2018-06-13T20:42:17.536Z,8.10
2018-06-13T20:44:45.965Z,9.20
2018-06-13T20:47:14.354Z,9.23
2018-06-13T20:49:42.837Z,8.20
2018-06-13T20:52:11.237Z,7.93
2018-06-13T20:54:39.651Z,7.30
2018-06-13T20:57:08.082Z,8.65
2018-06-13T20:59:36.558Z,8.80
2018-06-13T21:02:04.956Z,8.00
2018-06-13T21:04:33.817Z,7.50
2018-06-13T21:07:02.196Z,7.65
2018-06-13T21:09:30.628Z,7.92
2018-06-13T21:11:59.107Z,8.03
2018-06-13T21:14:27.549Z,7.80
2018-06-13T21:16:55.933Z,8.20
2018-06-13T21:19:24.362Z,7.60
2018-06-13T21:21:52.740Z,8.07
2018-06-13T21:24:21.260Z,9.20
2018-06-13T21:26:49.655Z,8.10
2018-06-13T21:29:18.117Z,8.30
2018-06-13T21:31:46.547Z,8.05
2018-06-13T21:34:14.942Z,8.18
2018-06-13T21:36:43.365Z,7.65
2018-06-13T21:39:12.066Z,8.38
2018-06-13T21:41:40.480Z,7.78
2018-06-13T21:44:09.110Z,7.33
2018-06-13T21:46:37.561Z,8.73
2018-06-13T21:49:06.153Z,8.78
2018-06-13T21:51:34.567Z,8.10
2018-06-13T21:54:02.977Z,8.38
2018-06-13T21:56:31.528Z,8.45
2018-06-13T21:59:00.022Z,7.78
2018-06-13T22:01:28.432Z,8.40
2018-06-13T22:03:56.836Z,8.23
2018-06-13T22:06:25.257Z,8.58
2018-06-13T22:08:53.689Z,9.75
2018-06-13T22:11:22.125Z,8.98
2018-06-13T22:13:50.561Z,7.90
2018-06-13T22:16:19.105Z,9.08
2018-06-13T22:18:47.488Z,9.10
2018-06-13T22:21:15.938Z,8.53
2018-06-13T22:23:44.344Z,8.23
2018-06-13T22:26:12.825Z,9.27
2018-06-13T22:28:41.204Z,8.93
2018-06-13T22:31:09.311Z,8.37
2018-06-13T22:33:37.729Z,8.03
2018-06-13T22:36:06.185Z,8.88
2018-06-13T22:38:34.582Z,8.38
2018-06-13T22:41:03.016Z,9.70
2018-06-13T22:43:31.410Z,9.55
2018-06-13T22:45:59.877Z,9.13
2018-06-13T22:48:28.277Z,9.53
2018-06-13T22:50:56.724Z,9.43
2018-06-13T22:53:25.112Z,8.63
2018-06-13T22:55:53.511Z,8.80
2018-06-13T22:58:21.937Z,11.12
2018-06-13T23:00:59.913Z,8.85
2018-06-13T23:03:28.624Z,9.07
2018-06-13T23:05:57.033Z,8.60
2018-06-13T23:08:25.473Z,9.50
2018-06-13T23:10:53.873Z,8.48
2018-06-13T23:13:22.313Z,9.50
2018-06-13T23:15:50.713Z,9.75
2018-06-13T23:18:19.308Z,8.73
2018-06-13T23:20:47.848Z,7.97
2018-06-13T23:23:16.273Z,8.35
2018-06-13T23:25:44.889Z,7.87
2018-06-13T23:28:13.440Z,9.13
2018-06-13T23:30:41.822Z,9.18
2018-06-13T23:33:10.538Z,9.70
2018-06-13T23:35:38.917Z,9.95
2018-06-13T23:38:07.064Z,9.77
2018-06-13T23:40:35.439Z,8.90
2018-06-13T23:43:03.872Z,9.15
2018-06-13T23:45:32.258Z,8.45
2018-06-13T23:48:01.060Z,9.93
2018-06-13T23:50:29.461Z,9.20
2018-06-13T23:52:57.911Z,9.23
2018-06-13T23:55:26.307Z,9.00
2018-06-13T23:57:54.735Z,9.73
